Terminal Aerodrome Forecast
Issued by NWS Sioux Falls, SD

Home | Current Version | Previous Version | Text Only | Print | Product List | Glossary Off
Versions: 1 2 3 4 5 6 7 8 9 10 11 12

000
FTUS43 KFSD 131720
TAFFSD
TAF
KFSD 131720Z 1318/1418 19017G25KT P6SM SCT050
     FM140000 19007KT P6SM SKC
     FM141000 VRB04KT P6SM SCT120
     FM141500 34005KT P6SM BKN100=

USA.gov is the U.S. government's official web portal to all federal, state and local government web resources and services.